sensor_id;sensor_type;location;lat;lon;timestamp;P1;durP1;ratioP1;P2;durP2;ratioP2
36787;SDS011;22738;45.560;9.434;2023-04-03T00:02:38;12.45;;;6.18;;
36787;SDS011;22738;45.560;9.434;2023-04-03T00:09:21;12.07;;;5.78;;
36787;SDS011;22738;45.560;9.434;2023-04-03T00:16:02;10.90;;;5.25;;
36787;SDS011;22738;45.560;9.434;2023-04-03T00:22:43;10.23;;;5.05;;
36787;SDS011;22738;45.560;9.434;2023-04-03T00:29:25;12.68;;;5.80;;
36787;SDS011;22738;45.560;9.434;2023-04-03T00:36:07;9.98;;;4.85;;
36787;SDS011;22738;45.560;9.434;2023-04-03T00:42:51;13.05;;;5.20;;
36787;SDS011;22738;45.560;9.434;2023-04-03T00:49:35;7.25;;;4.45;;
36787;SDS011;22738;45.560;9.434;2023-04-03T00:56:18;6.45;;;4.00;;
36787;SDS011;22738;45.560;9.434;2023-04-03T01:03:02;7.95;;;4.28;;
36787;SDS011;22738;45.560;9.434;2023-04-03T01:09:44;6.90;;;3.65;;
36787;SDS011;22738;45.560;9.434;2023-04-03T01:16:29;6.40;;;4.07;;
36787;SDS011;22738;45.560;9.434;2023-04-03T01:30:33;5.40;;;3.03;;
36787;SDS011;22738;45.560;9.434;2023-04-03T01:37:17;8.23;;;3.88;;
36787;SDS011;22738;45.560;9.434;2023-04-03T01:43:58;7.40;;;3.58;;
36787;SDS011;22738;45.560;9.434;2023-04-03T01:50:39;12.48;;;3.88;;
36787;SDS011;22738;45.560;9.434;2023-04-03T01:57:20;9.98;;;3.78;;
36787;SDS011;22738;45.560;9.434;2023-04-03T02:04:01;9.77;;;4.00;;
36787;SDS011;22738;45.560;9.434;2023-04-03T02:10:43;8.25;;;3.10;;
36787;SDS011;22738;45.560;9.434;2023-04-03T02:17:26;8.23;;;3.53;;
36787;SDS011;22738;45.560;9.434;2023-04-03T02:24:10;6.78;;;3.88;;
36787;SDS011;22738;45.560;9.434;2023-04-03T02:30:51;12.95;;;4.32;;
36787;SDS011;22738;45.560;9.434;2023-04-03T02:37:33;13.15;;;4.50;;
36787;SDS011;22738;45.560;9.434;2023-04-03T02:44:14;12.73;;;4.78;;
36787;SDS011;22738;45.560;9.434;2023-04-03T02:50:55;13.68;;;5.38;;
36787;SDS011;22738;45.560;9.434;2023-04-03T02:57:36;10.52;;;4.35;;
36787;SDS011;22738;45.560;9.434;2023-04-03T03:04:18;13.13;;;4.90;;
36787;SDS011;22738;45.560;9.434;2023-04-03T03:10:59;23.58;;;5.80;;
36787;SDS011;22738;45.560;9.434;2023-04-03T03:17:40;11.60;;;4.60;;
36787;SDS011;22738;45.560;9.434;2023-04-03T03:24:22;12.70;;;4.75;;
36787;SDS011;22738;45.560;9.434;2023-04-03T03:31:03;8.88;;;5.03;;
36787;SDS011;22738;45.560;9.434;2023-04-03T03:37:45;13.85;;;4.47;;
36787;SDS011;22738;45.560;9.434;2023-04-03T03:44:26;8.60;;;4.53;;
36787;SDS011;22738;45.560;9.434;2023-04-03T03:51:10;12.33;;;5.63;;
36787;SDS011;22738;45.560;9.434;2023-04-03T03:57:53;12.88;;;5.45;;
36787;SDS011;22738;45.560;9.434;2023-04-03T04:04:35;15.65;;;5.93;;
36787;SDS011;22738;45.560;9.434;2023-04-03T04:11:16;9.70;;;4.68;;
36787;SDS011;22738;45.560;9.434;2023-04-03T04:17:59;9.60;;;4.80;;
36787;SDS011;22738;45.560;9.434;2023-04-03T04:24:40;10.15;;;4.80;;
36787;SDS011;22738;45.560;9.434;2023-04-03T04:31:22;14.20;;;4.28;;
36787;SDS011;22738;45.560;9.434;2023-04-03T04:38:04;13.98;;;4.70;;
36787;SDS011;22738;45.560;9.434;2023-04-03T04:44:45;9.55;;;4.53;;
36787;SDS011;22738;45.560;9.434;2023-04-03T04:51:28;10.55;;;4.82;;
36787;SDS011;22738;45.560;9.434;2023-04-03T04:58:10;11.93;;;4.90;;
36787;SDS011;22738;45.560;9.434;2023-04-03T05:04:51;11.63;;;5.10;;
36787;SDS011;22738;45.560;9.434;2023-04-03T05:11:37;8.65;;;5.25;;
36787;SDS011;22738;45.560;9.434;2023-04-03T05:18:20;10.40;;;4.20;;
36787;SDS011;22738;45.560;9.434;2023-04-03T05:25:02;8.43;;;4.45;;
36787;SDS011;22738;45.560;9.434;2023-04-03T05:31:44;10.98;;;4.82;;
36787;SDS011;22738;45.560;9.434;2023-04-03T05:38:27;9.82;;;5.20;;
36787;SDS011;22738;45.560;9.434;2023-04-03T05:45:10;9.73;;;4.65;;
36787;SDS011;22738;45.560;9.434;2023-04-03T05:51:51;5.68;;;2.88;;
36787;SDS011;22738;45.560;9.434;2023-04-03T05:58:41;5.22;;;2.30;;
36787;SDS011;22738;45.560;9.434;2023-04-03T06:05:23;4.05;;;1.95;;
36787;SDS011;22738;45.560;9.434;2023-04-03T06:12:05;6.38;;;2.17;;
36787;SDS011;22738;45.560;9.434;2023-04-03T06:18:46;5.43;;;2.55;;
36787;SDS011;22738;45.560;9.434;2023-04-03T06:25:28;5.97;;;1.90;;
36787;SDS011;22738;45.560;9.434;2023-04-03T06:32:09;18.30;;;2.53;;
36787;SDS011;22738;45.560;9.434;2023-04-03T06:38:50;4.57;;;2.45;;
36787;SDS011;22738;45.560;9.434;2023-04-03T06:45:31;9.07;;;2.53;;
36787;SDS011;22738;45.560;9.434;2023-04-03T06:52:12;5.03;;;2.10;;
36787;SDS011;22738;45.560;9.434;2023-04-03T06:58:54;5.07;;;2.50;;
36787;SDS011;22738;45.560;9.434;2023-04-03T07:05:38;3.50;;;2.47;;
36787;SDS011;22738;45.560;9.434;2023-04-03T07:12:19;4.82;;;2.88;;
36787;SDS011;22738;45.560;9.434;2023-04-03T07:19:00;5.97;;;2.75;;
36787;SDS011;22738;45.560;9.434;2023-04-03T07:25:46;5.78;;;2.92;;
36787;SDS011;22738;45.560;9.434;2023-04-03T07:32:28;6.05;;;3.13;;
36787;SDS011;22738;45.560;9.434;2023-04-03T07:39:09;7.03;;;3.40;;
36787;SDS011;22738;45.560;9.434;2023-04-03T07:45:51;4.97;;;2.70;;
36787;SDS011;22738;45.560;9.434;2023-04-03T07:52:32;5.75;;;3.20;;
36787;SDS011;22738;45.560;9.434;2023-04-03T07:59:13;4.30;;;2.72;;
36787;SDS011;22738;45.560;9.434;2023-04-03T08:05:55;4.13;;;2.67;;
36787;SDS011;22738;45.560;9.434;2023-04-03T08:12:45;3.30;;;2.30;;
36787;SDS011;22738;45.560;9.434;2023-04-03T08:26:14;4.57;;;2.33;;
36787;SDS011;22738;45.560;9.434;2023-04-03T08:32:59;4.22;;;2.35;;
36787;SDS011;22738;45.560;9.434;2023-04-03T08:39:42;6.18;;;2.75;;
36787;SDS011;22738;45.560;9.434;2023-04-03T08:46:26;3.90;;;2.58;;
36787;SDS011;22738;45.560;9.434;2023-04-03T08:53:25;5.80;;;2.85;;
36787;SDS011;22738;45.560;9.434;2023-04-03T09:00:22;5.43;;;3.03;;
36787;SDS011;22738;45.560;9.434;2023-04-03T09:07:08;4.00;;;2.65;;
36787;SDS011;22738;45.560;9.434;2023-04-03T09:28:05;4.68;;;2.60;;
36787;SDS011;22738;45.560;9.434;2023-04-03T09:34:50;4.97;;;2.70;;
36787;SDS011;22738;45.560;9.434;2023-04-03T09:41:33;4.13;;;2.30;;
36787;SDS011;22738;45.560;9.434;2023-04-03T09:48:16;4.97;;;2.28;;
36787;SDS011;22738;45.560;9.434;2023-04-03T09:55:07;3.80;;;2.63;;
36787;SDS011;22738;45.560;9.434;2023-04-03T10:02:37;8.20;;;2.53;;
36787;SDS011;22738;45.560;9.434;2023-04-03T10:09:03;2.67;;;1.70;;
36787;SDS011;22738;45.560;9.434;2023-04-03T10:15:56;4.22;;;1.85;;
36787;SDS011;22738;45.560;9.434;2023-04-03T10:30:21;2.97;;;2.10;;
36787;SDS011;22738;45.560;9.434;2023-04-03T10:58:44;8.25;;;2.42;;
36787;SDS011;22738;45.560;9.434;2023-04-03T11:05:48;3.15;;;2.20;;
36787;SDS011;22738;45.560;9.434;2023-04-03T11:12:48;3.75;;;2.40;;
36787;SDS011;22738;45.560;9.434;2023-04-03T11:19:34;1.90;;;1.80;;
36787;SDS011;22738;45.560;9.434;2023-04-03T11:26:21;2.50;;;2.03;;
36787;SDS011;22738;45.560;9.434;2023-04-03T11:46:57;2.45;;;1.88;;
36787;SDS011;22738;45.560;9.434;2023-04-03T11:53:41;2.88;;;1.85;;
36787;SDS011;22738;45.560;9.434;2023-04-03T12:07:35;2.58;;;1.65;;
36787;SDS011;22738;45.560;9.434;2023-04-03T12:14:16;3.05;;;2.03;;
36787;SDS011;22738;45.560;9.434;2023-04-03T12:20:58;4.93;;;2.03;;
36787;SDS011;22738;45.560;9.434;2023-04-03T12:27:45;5.28;;;1.50;;
36787;SDS011;22738;45.560;9.434;2023-04-03T12:48:57;2.40;;;2.05;;
36787;SDS011;22738;45.560;9.434;2023-04-03T12:55:39;9.18;;;2.08;;
36787;SDS011;22738;45.560;9.434;2023-04-03T13:02:28;3.08;;;1.85;;
36787;SDS011;22738;45.560;9.434;2023-04-03T13:09:25;2.45;;;1.58;;
36787;SDS011;22738;45.560;9.434;2023-04-03T13:16:09;2.28;;;1.63;;
36787;SDS011;22738;45.560;9.434;2023-04-03T13:23:07;4.47;;;2.20;;
36787;SDS011;22738;45.560;9.434;2023-04-03T13:29:53;2.25;;;1.67;;
36787;SDS011;22738;45.560;9.434;2023-04-03T13:36:38;6.30;;;2.28;;
36787;SDS011;22738;45.560;9.434;2023-04-03T13:43:36;3.38;;;1.55;;
36787;SDS011;22738;45.560;9.434;2023-04-03T13:50:19;3.05;;;1.90;;
36787;SDS011;22738;45.560;9.434;2023-04-03T13:57:03;7.63;;;1.83;;
36787;SDS011;22738;45.560;9.434;2023-04-03T14:10:37;9.80;;;2.75;;
36787;SDS011;22738;45.560;9.434;2023-04-03T14:17:21;2.83;;;1.92;;
36787;SDS011;22738;45.560;9.434;2023-04-03T14:24:06;4.25;;;2.08;;
36787;SDS011;22738;45.560;9.434;2023-04-03T14:30:48;2.70;;;1.90;;
36787;SDS011;22738;45.560;9.434;2023-04-03T14:37:31;3.97;;;2.37;;
36787;SDS011;22738;45.560;9.434;2023-04-03T14:44:14;7.57;;;1.83;;
36787;SDS011;22738;45.560;9.434;2023-04-03T14:50:55;4.15;;;2.30;;
36787;SDS011;22738;45.560;9.434;2023-04-03T14:57:36;5.55;;;2.33;;
36787;SDS011;22738;45.560;9.434;2023-04-03T15:04:20;3.28;;;2.17;;
36787;SDS011;22738;45.560;9.434;2023-04-03T15:11:01;12.60;;;2.30;;
36787;SDS011;22738;45.560;9.434;2023-04-03T15:17:43;9.23;;;2.17;;
36787;SDS011;22738;45.560;9.434;2023-04-03T15:24:25;4.18;;;2.25;;
36787;SDS011;22738;45.560;9.434;2023-04-03T15:31:06;4.20;;;2.38;;
36787;SDS011;22738;45.560;9.434;2023-04-03T15:37:48;8.63;;;2.88;;
36787;SDS011;22738;45.560;9.434;2023-04-03T15:44:29;8.82;;;2.17;;
36787;SDS011;22738;45.560;9.434;2023-04-03T15:51:10;10.32;;;2.63;;
36787;SDS011;22738;45.560;9.434;2023-04-03T15:57:52;8.48;;;2.47;;
36787;SDS011;22738;45.560;9.434;2023-04-03T16:04:34;6.43;;;2.50;;
36787;SDS011;22738;45.560;9.434;2023-04-03T16:11:15;12.35;;;2.63;;
36787;SDS011;22738;45.560;9.434;2023-04-03T16:17:57;9.90;;;2.67;;
36787;SDS011;22738;45.560;9.434;2023-04-03T16:24:39;10.40;;;2.65;;
36787;SDS011;22738;45.560;9.434;2023-04-03T16:31:20;8.07;;;2.53;;
36787;SDS011;22738;45.560;9.434;2023-04-03T16:38:03;4.50;;;2.28;;
36787;SDS011;22738;45.560;9.434;2023-04-03T16:44:45;10.77;;;2.78;;
36787;SDS011;22738;45.560;9.434;2023-04-03T16:51:26;12.23;;;2.58;;
36787;SDS011;22738;45.560;9.434;2023-04-03T16:58:07;4.13;;;2.10;;
36787;SDS011;22738;45.560;9.434;2023-04-03T17:04:49;7.22;;;2.85;;
36787;SDS011;22738;45.560;9.434;2023-04-03T17:11:32;6.18;;;2.67;;
36787;SDS011;22738;45.560;9.434;2023-04-03T17:18:13;13.63;;;2.40;;
36787;SDS011;22738;45.560;9.434;2023-04-03T17:24:55;5.25;;;2.33;;
36787;SDS011;22738;45.560;9.434;2023-04-03T17:31:37;5.68;;;2.38;;
36787;SDS011;22738;45.560;9.434;2023-04-03T17:38:18;5.32;;;2.55;;
36787;SDS011;22738;45.560;9.434;2023-04-03T17:44:59;9.25;;;2.97;;
36787;SDS011;22738;45.560;9.434;2023-04-03T17:51:41;8.07;;;2.60;;
36787;SDS011;22738;45.560;9.434;2023-04-03T17:58:22;8.43;;;2.28;;
36787;SDS011;22738;45.560;9.434;2023-04-03T18:05:03;5.53;;;2.35;;
36787;SDS011;22738;45.560;9.434;2023-04-03T18:11:46;9.77;;;3.03;;
36787;SDS011;22738;45.560;9.434;2023-04-03T18:18:30;6.90;;;2.50;;
36787;SDS011;22738;45.560;9.434;2023-04-03T18:25:11;8.32;;;2.70;;
36787;SDS011;22738;45.560;9.434;2023-04-03T18:31:53;9.25;;;2.70;;
36787;SDS011;22738;45.560;9.434;2023-04-03T18:38:36;7.18;;;2.67;;
36787;SDS011;22738;45.560;9.434;2023-04-03T18:45:22;10.35;;;3.20;;
36787;SDS011;22738;45.560;9.434;2023-04-03T18:52:03;6.10;;;2.90;;
36787;SDS011;22738;45.560;9.434;2023-04-03T18:58:45;6.85;;;2.38;;
36787;SDS011;22738;45.560;9.434;2023-04-03T19:05:28;15.43;;;2.75;;
36787;SDS011;22738;45.560;9.434;2023-04-03T19:12:17;5.93;;;2.25;;
36787;SDS011;22738;45.560;9.434;2023-04-03T19:19:07;6.55;;;2.80;;
36787;SDS011;22738;45.560;9.434;2023-04-03T19:26:02;5.82;;;2.70;;
36787;SDS011;22738;45.560;9.434;2023-04-03T19:32:46;3.97;;;2.47;;
36787;SDS011;22738;45.560;9.434;2023-04-03T19:39:30;7.40;;;3.05;;
36787;SDS011;22738;45.560;9.434;2023-04-03T19:46:15;6.15;;;3.15;;
36787;SDS011;22738;45.560;9.434;2023-04-03T19:52:59;5.80;;;1.92;;
36787;SDS011;22738;45.560;9.434;2023-04-03T19:59:44;6.13;;;3.10;;
36787;SDS011;22738;45.560;9.434;2023-04-03T20:06:26;3.72;;;2.17;;
36787;SDS011;22738;45.560;9.434;2023-04-03T20:13:08;12.18;;;2.72;;
36787;SDS011;22738;45.560;9.434;2023-04-03T20:19:50;6.53;;;2.13;;
36787;SDS011;22738;45.560;9.434;2023-04-03T20:26:32;7.32;;;2.72;;
36787;SDS011;22738;45.560;9.434;2023-04-03T20:33:17;6.15;;;2.97;;
36787;SDS011;22738;45.560;9.434;2023-04-03T20:39:58;7.55;;;2.90;;
36787;SDS011;22738;45.560;9.434;2023-04-03T20:46:40;6.68;;;2.80;;
36787;SDS011;22738;45.560;9.434;2023-04-03T20:53:22;6.60;;;2.05;;
36787;SDS011;22738;45.560;9.434;2023-04-03T21:00:04;4.18;;;2.22;;
36787;SDS011;22738;45.560;9.434;2023-04-03T21:21:28;8.43;;;2.10;;
36787;SDS011;22738;45.560;9.434;2023-04-03T21:28:09;2.65;;;1.45;;
36787;SDS011;22738;45.560;9.434;2023-04-03T21:34:52;31.85;;;2.58;;
36787;SDS011;22738;45.560;9.434;2023-04-03T21:41:33;11.38;;;2.20;;
36787;SDS011;22738;45.560;9.434;2023-04-03T21:48:15;15.32;;;1.67;;
36787;SDS011;22738;45.560;9.434;2023-04-03T21:54:58;2.92;;;1.70;;
36787;SDS011;22738;45.560;9.434;2023-04-03T22:01:41;2.50;;;1.20;;
36787;SDS011;22738;45.560;9.434;2023-04-03T22:08:23;2.90;;;1.30;;
36787;SDS011;22738;45.560;9.434;2023-04-03T22:15:05;8.85;;;1.15;;
36787;SDS011;22738;45.560;9.434;2023-04-03T22:21:49;1.42;;;0.90;;
36787;SDS011;22738;45.560;9.434;2023-04-03T22:28:32;4.47;;;1.52;;
36787;SDS011;22738;45.560;9.434;2023-04-03T22:35:15;4.10;;;1.60;;
36787;SDS011;22738;45.560;9.434;2023-04-03T22:41:56;3.03;;;1.08;;
36787;SDS011;22738;45.560;9.434;2023-04-03T22:48:39;7.63;;;1.65;;
36787;SDS011;22738;45.560;9.434;2023-04-03T22:55:22;2.72;;;1.67;;
36787;SDS011;22738;45.560;9.434;2023-04-03T23:02:04;3.15;;;1.33;;
36787;SDS011;22738;45.560;9.434;2023-04-03T23:08:46;3.50;;;1.40;;
36787;SDS011;22738;45.560;9.434;2023-04-03T23:15:27;1.80;;;1.25;;
36787;SDS011;22738;45.560;9.434;2023-04-03T23:22:08;2.78;;;1.45;;
36787;SDS011;22738;45.560;9.434;2023-04-03T23:28:51;2.63;;;0.93;;
36787;SDS011;22738;45.560;9.434;2023-04-03T23:35:32;2.78;;;1.10;;
36787;SDS011;22738;45.560;9.434;2023-04-03T23:42:13;5.82;;;1.40;;
36787;SDS011;22738;45.560;9.434;2023-04-03T23:48:54;5.22;;;1.30;;
36787;SDS011;22738;45.560;9.434;2023-04-03T23:55:35;5.60;;;1.58;;
